sensor_id;sensor_type;location;lat;lon;timestamp;P1;durP1;ratioP1;P2;durP2;ratioP2
85314;SDS011;75718;50.886;11.656;2024-03-02T00:00:48;21.63;;;10.43;;
85314;SDS011;75718;50.886;11.656;2024-03-02T00:03:15;19.50;;;10.57;;
85314;SDS011;75718;50.886;11.656;2024-03-02T00:05:40;21.25;;;11.00;;
85314;SDS011;75718;50.886;11.656;2024-03-02T00:08:06;24.33;;;11.77;;
85314;SDS011;75718;50.886;11.656;2024-03-02T00:10:38;21.30;;;10.57;;
85314;SDS011;75718;50.886;11.656;2024-03-02T00:13:05;25.08;;;12.98;;
85314;SDS011;75718;50.886;11.656;2024-03-02T00:18:10;21.90;;;11.85;;
85314;SDS011;75718;50.886;11.656;2024-03-02T00:20:37;23.13;;;12.48;;
85314;SDS011;75718;50.886;11.656;2024-03-02T00:23:03;21.10;;;10.82;;
85314;SDS011;75718;50.886;11.656;2024-03-02T00:25:43;24.92;;;11.25;;
85314;SDS011;75718;50.886;11.656;2024-03-02T00:28:31;20.30;;;10.80;;
85314;SDS011;75718;50.886;11.656;2024-03-02T00:33:33;19.48;;;10.38;;
85314;SDS011;75718;50.886;11.656;2024-03-02T00:35:59;22.58;;;10.48;;
85314;SDS011;75718;50.886;11.656;2024-03-02T00:38:26;19.90;;;9.68;;
85314;SDS011;75718;50.886;11.656;2024-03-02T00:40:52;24.35;;;12.55;;
85314;SDS011;75718;50.886;11.656;2024-03-02T00:46:02;26.25;;;11.82;;
85314;SDS011;75718;50.886;11.656;2024-03-02T00:48:27;25.08;;;9.77;;
85314;SDS011;75718;50.886;11.656;2024-03-02T00:50:52;21.65;;;10.93;;
85314;SDS011;75718;50.886;11.656;2024-03-02T00:53:17;24.70;;;12.20;;
85314;SDS011;75718;50.886;11.656;2024-03-02T00:55:49;21.67;;;11.32;;
85314;SDS011;75718;50.886;11.656;2024-03-02T00:58:15;28.75;;;12.68;;
85314;SDS011;75718;50.886;11.656;2024-03-02T01:00:40;19.13;;;10.03;;
85314;SDS011;75718;50.886;11.656;2024-03-02T01:03:05;23.47;;;11.53;;
85314;SDS011;75718;50.886;11.656;2024-03-02T01:05:31;22.83;;;10.90;;
85314;SDS011;75718;50.886;11.656;2024-03-02T01:07:56;24.83;;;11.80;;
85314;SDS011;75718;50.886;11.656;2024-03-02T01:10:21;19.27;;;10.10;;
85314;SDS011;75718;50.886;11.656;2024-03-02T01:12:46;20.77;;;10.73;;
85314;SDS011;75718;50.886;11.656;2024-03-02T01:15:12;20.33;;;11.00;;
85314;SDS011;75718;50.886;11.656;2024-03-02T01:17:37;21.53;;;11.50;;
85314;SDS011;75718;50.886;11.656;2024-03-02T01:20:02;21.45;;;11.02;;
85314;SDS011;75718;50.886;11.656;2024-03-02T01:22:28;23.52;;;11.50;;
85314;SDS011;75718;50.886;11.656;2024-03-02T01:24:53;22.23;;;11.43;;
85314;SDS011;75718;50.886;11.656;2024-03-02T01:27:19;20.17;;;10.93;;
85314;SDS011;75718;50.886;11.656;2024-03-02T01:29:44;23.20;;;10.13;;
85314;SDS011;75718;50.886;11.656;2024-03-02T01:32:10;23.20;;;11.77;;
85314;SDS011;75718;50.886;11.656;2024-03-02T01:34:35;22.10;;;11.53;;
85314;SDS011;75718;50.886;11.656;2024-03-02T01:37:00;18.50;;;10.10;;
85314;SDS011;75718;50.886;11.656;2024-03-02T01:39:25;19.83;;;11.03;;
85314;SDS011;75718;50.886;11.656;2024-03-02T01:41:51;23.33;;;11.40;;
85314;SDS011;75718;50.886;11.656;2024-03-02T01:44:16;19.63;;;9.77;;
85314;SDS011;75718;50.886;11.656;2024-03-02T01:46:42;19.58;;;11.27;;
85314;SDS011;75718;50.886;11.656;2024-03-02T01:49:07;24.93;;;11.97;;
85314;SDS011;75718;50.886;11.656;2024-03-02T01:51:32;22.70;;;11.05;;
85314;SDS011;75718;50.886;11.656;2024-03-02T01:53:57;21.13;;;11.90;;
85314;SDS011;75718;50.886;11.656;2024-03-02T01:56:23;25.93;;;13.00;;
85314;SDS011;75718;50.886;11.656;2024-03-02T01:58:49;22.80;;;11.25;;
85314;SDS011;75718;50.886;11.656;2024-03-02T02:01:14;22.17;;;11.80;;
85314;SDS011;75718;50.886;11.656;2024-03-02T02:03:39;23.70;;;11.13;;
85314;SDS011;75718;50.886;11.656;2024-03-02T02:06:05;21.83;;;12.00;;
85314;SDS011;75718;50.886;11.656;2024-03-02T02:08:32;23.85;;;12.43;;
85314;SDS011;75718;50.886;11.656;2024-03-02T02:10:57;24.92;;;11.45;;
85314;SDS011;75718;50.886;11.656;2024-03-02T02:13:23;24.17;;;12.00;;
85314;SDS011;75718;50.886;11.656;2024-03-02T02:15:48;25.67;;;11.20;;
85314;SDS011;75718;50.886;11.656;2024-03-02T02:18:13;19.07;;;11.33;;
85314;SDS011;75718;50.886;11.656;2024-03-02T02:20:38;20.27;;;10.27;;
85314;SDS011;75718;50.886;11.656;2024-03-02T02:23:04;21.08;;;11.82;;
85314;SDS011;75718;50.886;11.656;2024-03-02T02:25:30;21.00;;;11.68;;
85314;SDS011;75718;50.886;11.656;2024-03-02T02:27:56;19.98;;;10.48;;
85314;SDS011;75718;50.886;11.656;2024-03-02T02:30:24;22.42;;;12.75;;
85314;SDS011;75718;50.886;11.656;2024-03-02T02:35:17;29.25;;;12.13;;
85314;SDS011;75718;50.886;11.656;2024-03-02T02:37:42;23.10;;;11.07;;
85314;SDS011;75718;50.886;11.656;2024-03-02T02:40:08;25.23;;;12.40;;
85314;SDS011;75718;50.886;11.656;2024-03-02T02:42:34;30.25;;;14.13;;
85314;SDS011;75718;50.886;11.656;2024-03-02T02:44:59;32.67;;;14.80;;
85314;SDS011;75718;50.886;11.656;2024-03-02T02:47:25;29.07;;;14.33;;
85314;SDS011;75718;50.886;11.656;2024-03-02T02:49:50;28.10;;;13.60;;
85314;SDS011;75718;50.886;11.656;2024-03-02T02:52:16;28.50;;;13.47;;
85314;SDS011;75718;50.886;11.656;2024-03-02T02:54:41;27.80;;;13.32;;
85314;SDS011;75718;50.886;11.656;2024-03-02T02:57:06;31.73;;;13.93;;
85314;SDS011;75718;50.886;11.656;2024-03-02T02:59:32;26.73;;;12.80;;
85314;SDS011;75718;50.886;11.656;2024-03-02T03:01:57;27.37;;;13.87;;
85314;SDS011;75718;50.886;11.656;2024-03-02T03:04:22;23.87;;;11.90;;
85314;SDS011;75718;50.886;11.656;2024-03-02T03:06:47;25.27;;;14.43;;
85314;SDS011;75718;50.886;11.656;2024-03-02T03:09:12;25.50;;;11.53;;
85314;SDS011;75718;50.886;11.656;2024-03-02T03:11:38;28.57;;;13.33;;
85314;SDS011;75718;50.886;11.656;2024-03-02T03:14:03;29.47;;;12.77;;
85314;SDS011;75718;50.886;11.656;2024-03-02T03:16:30;26.13;;;13.13;;
85314;SDS011;75718;50.886;11.656;2024-03-02T03:18:55;28.92;;;14.10;;
85314;SDS011;75718;50.886;11.656;2024-03-02T03:21:20;25.13;;;12.50;;
85314;SDS011;75718;50.886;11.656;2024-03-02T03:23:46;23.67;;;13.57;;
85314;SDS011;75718;50.886;11.656;2024-03-02T03:26:11;23.50;;;13.17;;
85314;SDS011;75718;50.886;11.656;2024-03-02T03:28:36;27.67;;;13.37;;
85314;SDS011;75718;50.886;11.656;2024-03-02T03:31:01;28.50;;;13.30;;
85314;SDS011;75718;50.886;11.656;2024-03-02T03:33:28;32.05;;;14.35;;
85314;SDS011;75718;50.886;11.656;2024-03-02T03:35:53;31.23;;;13.77;;
85314;SDS011;75718;50.886;11.656;2024-03-02T03:38:19;29.23;;;14.35;;
85314;SDS011;75718;50.886;11.656;2024-03-02T03:40:44;34.40;;;16.03;;
85314;SDS011;75718;50.886;11.656;2024-03-02T03:43:10;36.97;;;17.25;;
85314;SDS011;75718;50.886;11.656;2024-03-02T03:45:35;35.13;;;17.25;;
85314;SDS011;75718;50.886;11.656;2024-03-02T03:48:00;38.37;;;18.00;;
85314;SDS011;75718;50.886;11.656;2024-03-02T03:50:26;36.92;;;18.17;;
85314;SDS011;75718;50.886;11.656;2024-03-02T03:52:51;39.00;;;17.13;;
85314;SDS011;75718;50.886;11.656;2024-03-02T03:55:16;38.53;;;17.27;;
85314;SDS011;75718;50.886;11.656;2024-03-02T03:57:42;38.77;;;20.23;;
85314;SDS011;75718;50.886;11.656;2024-03-02T04:00:07;38.33;;;16.33;;
85314;SDS011;75718;50.886;11.656;2024-03-02T04:02:35;41.28;;;18.15;;
85314;SDS011;75718;50.886;11.656;2024-03-02T04:05:00;30.20;;;16.05;;
85314;SDS011;75718;50.886;11.656;2024-03-02T04:07:25;33.47;;;17.23;;
85314;SDS011;75718;50.886;11.656;2024-03-02T04:09:51;34.73;;;16.50;;
85314;SDS011;75718;50.886;11.656;2024-03-02T04:12:16;27.67;;;15.03;;
85314;SDS011;75718;50.886;11.656;2024-03-02T04:14:41;31.88;;;16.95;;
85314;SDS011;75718;50.886;11.656;2024-03-02T04:17:07;33.25;;;15.52;;
85314;SDS011;75718;50.886;11.656;2024-03-02T04:19:32;37.97;;;18.60;;
85314;SDS011;75718;50.886;11.656;2024-03-02T04:21:57;33.37;;;15.73;;
85314;SDS011;75718;50.886;11.656;2024-03-02T04:24:23;31.20;;;16.33;;
85314;SDS011;75718;50.886;11.656;2024-03-02T04:26:48;31.83;;;15.63;;
85314;SDS011;75718;50.886;11.656;2024-03-02T04:29:13;36.43;;;17.00;;
85314;SDS011;75718;50.886;11.656;2024-03-02T04:31:38;34.87;;;16.77;;
85314;SDS011;75718;50.886;11.656;2024-03-02T04:34:04;39.53;;;16.40;;
85314;SDS011;75718;50.886;11.656;2024-03-02T04:36:29;22.40;;;12.40;;
85314;SDS011;75718;50.886;11.656;2024-03-02T04:38:54;22.77;;;13.13;;
85314;SDS011;75718;50.886;11.656;2024-03-02T04:41:20;24.43;;;12.93;;
85314;SDS011;75718;50.886;11.656;2024-03-02T04:43:45;30.80;;;13.83;;
85314;SDS011;75718;50.886;11.656;2024-03-02T04:46:10;29.47;;;14.53;;
85314;SDS011;75718;50.886;11.656;2024-03-02T04:48:35;24.98;;;13.20;;
85314;SDS011;75718;50.886;11.656;2024-03-02T04:51:01;29.17;;;14.83;;
85314;SDS011;75718;50.886;11.656;2024-03-02T04:53:27;35.63;;;15.95;;
85314;SDS011;75718;50.886;11.656;2024-03-02T04:55:52;34.50;;;15.37;;
85314;SDS011;75718;50.886;11.656;2024-03-02T04:58:20;31.85;;;14.98;;
85314;SDS011;75718;50.886;11.656;2024-03-02T05:00:46;33.77;;;17.23;;
85314;SDS011;75718;50.886;11.656;2024-03-02T05:03:11;34.65;;;16.98;;
85314;SDS011;75718;50.886;11.656;2024-03-02T05:05:37;40.45;;;18.60;;
85314;SDS011;75718;50.886;11.656;2024-03-02T05:08:03;40.70;;;19.05;;
85314;SDS011;75718;50.886;11.656;2024-03-02T05:10:29;41.40;;;19.75;;
85314;SDS011;75718;50.886;11.656;2024-03-02T05:12:54;44.88;;;19.67;;
85314;SDS011;75718;50.886;11.656;2024-03-02T05:15:23;49.83;;;20.20;;
85314;SDS011;75718;50.886;11.656;2024-03-02T05:17:49;51.03;;;21.80;;
85314;SDS011;75718;50.886;11.656;2024-03-02T05:20:15;57.45;;;23.67;;
85314;SDS011;75718;50.886;11.656;2024-03-02T05:22:40;50.80;;;22.63;;
85314;SDS011;75718;50.886;11.656;2024-03-02T05:25:06;54.30;;;21.43;;
85314;SDS011;75718;50.886;11.656;2024-03-02T05:27:31;49.83;;;23.52;;
85314;SDS011;75718;50.886;11.656;2024-03-02T05:29:57;61.15;;;25.83;;
85314;SDS011;75718;50.886;11.656;2024-03-02T05:32:23;57.83;;;26.23;;
85314;SDS011;75718;50.886;11.656;2024-03-02T05:34:48;61.20;;;24.50;;
85314;SDS011;75718;50.886;11.656;2024-03-02T05:37:15;62.55;;;26.10;;
85314;SDS011;75718;50.886;11.656;2024-03-02T05:39:41;54.70;;;24.17;;
85314;SDS011;75718;50.886;11.656;2024-03-02T05:42:08;62.67;;;25.50;;
85314;SDS011;75718;50.886;11.656;2024-03-02T05:44:33;50.80;;;24.77;;
85314;SDS011;75718;50.886;11.656;2024-03-02T05:46:59;52.53;;;23.40;;
85314;SDS011;75718;50.886;11.656;2024-03-02T05:49:24;67.80;;;25.87;;
85314;SDS011;75718;50.886;11.656;2024-03-02T05:51:49;60.00;;;24.23;;
85314;SDS011;75718;50.886;11.656;2024-03-02T05:54:15;63.97;;;25.47;;
85314;SDS011;75718;50.886;11.656;2024-03-02T05:56:40;60.80;;;24.80;;
85314;SDS011;75718;50.886;11.656;2024-03-02T05:59:05;52.70;;;23.10;;
85314;SDS011;75718;50.886;11.656;2024-03-02T06:01:41;58.38;;;25.52;;
85314;SDS011;75718;50.886;11.656;2024-03-02T06:04:08;64.15;;;25.45;;
85314;SDS011;75718;50.886;11.656;2024-03-02T06:06:33;60.20;;;25.92;;
85314;SDS011;75718;50.886;11.656;2024-03-02T06:09:02;59.30;;;24.10;;
85314;SDS011;75718;50.886;11.656;2024-03-02T06:11:33;67.32;;;25.10;;
85314;SDS011;75718;50.886;11.656;2024-03-02T06:13:58;59.35;;;25.38;;
85314;SDS011;75718;50.886;11.656;2024-03-02T06:16:24;68.00;;;26.10;;
85314;SDS011;75718;50.886;11.656;2024-03-02T06:18:49;67.17;;;27.33;;
85314;SDS011;75718;50.886;11.656;2024-03-02T06:21:14;60.77;;;24.63;;
85314;SDS011;75718;50.886;11.656;2024-03-02T06:23:39;58.43;;;25.00;;
85314;SDS011;75718;50.886;11.656;2024-03-02T06:26:05;60.27;;;22.90;;
85314;SDS011;75718;50.886;11.656;2024-03-02T06:28:30;52.17;;;24.43;;
85314;SDS011;75718;50.886;11.656;2024-03-02T06:30:55;61.60;;;23.52;;
85314;SDS011;75718;50.886;11.656;2024-03-02T06:33:21;57.53;;;25.00;;
85314;SDS011;75718;50.886;11.656;2024-03-02T06:35:46;62.63;;;26.50;;
85314;SDS011;75718;50.886;11.656;2024-03-02T06:38:11;58.93;;;23.63;;
85314;SDS011;75718;50.886;11.656;2024-03-02T06:40:36;62.63;;;24.57;;
85314;SDS011;75718;50.886;11.656;2024-03-02T06:43:04;56.60;;;25.98;;
85314;SDS011;75718;50.886;11.656;2024-03-02T06:45:29;54.23;;;24.47;;
85314;SDS011;75718;50.886;11.656;2024-03-02T06:47:55;50.13;;;21.05;;
85314;SDS011;75718;50.886;11.656;2024-03-02T06:50:21;49.75;;;22.20;;
85314;SDS011;75718;50.886;11.656;2024-03-02T06:52:46;51.15;;;23.60;;
85314;SDS011;75718;50.886;11.656;2024-03-02T06:55:11;49.57;;;22.00;;
85314;SDS011;75718;50.886;11.656;2024-03-02T06:57:37;48.80;;;22.57;;
85314;SDS011;75718;50.886;11.656;2024-03-02T07:00:02;49.30;;;21.10;;
85314;SDS011;75718;50.886;11.656;2024-03-02T07:02:30;47.40;;;19.63;;
85314;SDS011;75718;50.886;11.656;2024-03-02T07:04:55;48.03;;;23.85;;
85314;SDS011;75718;50.886;11.656;2024-03-02T07:07:21;46.65;;;22.23;;
85314;SDS011;75718;50.886;11.656;2024-03-02T07:09:46;45.80;;;20.85;;
85314;SDS011;75718;50.886;11.656;2024-03-02T07:12:12;46.25;;;20.67;;
85314;SDS011;75718;50.886;11.656;2024-03-02T07:14:38;63.20;;;22.75;;
85314;SDS011;75718;50.886;11.656;2024-03-02T07:17:21;42.63;;;18.83;;
85314;SDS011;75718;50.886;11.656;2024-03-02T07:19:47;41.30;;;20.30;;
85314;SDS011;75718;50.886;11.656;2024-03-02T07:22:12;42.80;;;18.10;;
85314;SDS011;75718;50.886;11.656;2024-03-02T07:24:41;39.72;;;17.83;;
85314;SDS011;75718;50.886;11.656;2024-03-02T07:27:07;45.30;;;19.27;;
85314;SDS011;75718;50.886;11.656;2024-03-02T07:29:35;44.05;;;19.08;;
85314;SDS011;75718;50.886;11.656;2024-03-02T07:32:01;43.33;;;19.67;;
85314;SDS011;75718;50.886;11.656;2024-03-02T07:34:26;39.65;;;18.73;;
85314;SDS011;75718;50.886;11.656;2024-03-02T07:36:52;41.23;;;19.63;;
85314;SDS011;75718;50.886;11.656;2024-03-02T07:39:17;41.05;;;18.40;;
85314;SDS011;75718;50.886;11.656;2024-03-02T07:41:44;40.30;;;18.25;;
85314;SDS011;75718;50.886;11.656;2024-03-02T07:44:10;42.90;;;20.55;;
85314;SDS011;75718;50.886;11.656;2024-03-02T07:46:39;39.88;;;17.20;;
85314;SDS011;75718;50.886;11.656;2024-03-02T07:49:04;43.28;;;19.80;;
85314;SDS011;75718;50.886;11.656;2024-03-02T07:51:30;38.17;;;17.73;;
85314;SDS011;75718;50.886;11.656;2024-03-02T07:53:55;38.17;;;17.03;;
85314;SDS011;75718;50.886;11.656;2024-03-02T07:56:20;39.57;;;19.47;;
85314;SDS011;75718;50.886;11.656;2024-03-02T07:58:47;45.75;;;20.02;;
85314;SDS011;75718;50.886;11.656;2024-03-02T08:01:14;40.25;;;20.63;;
85314;SDS011;75718;50.886;11.656;2024-03-02T08:03:39;35.63;;;17.35;;
85314;SDS011;75718;50.886;11.656;2024-03-02T08:06:05;36.97;;;17.38;;
85314;SDS011;75718;50.886;11.656;2024-03-02T08:08:31;35.47;;;17.85;;
85314;SDS011;75718;50.886;11.656;2024-03-02T08:10:56;32.97;;;17.42;;
85314;SDS011;75718;50.886;11.656;2024-03-02T08:13:21;30.93;;;15.90;;
85314;SDS011;75718;50.886;11.656;2024-03-02T08:15:47;40.23;;;21.23;;
85314;SDS011;75718;50.886;11.656;2024-03-02T08:18:12;30.03;;;15.43;;
85314;SDS011;75718;50.886;11.656;2024-03-02T08:20:37;23.63;;;13.57;;
85314;SDS011;75718;50.886;11.656;2024-03-02T08:23:02;29.02;;;15.13;;
85314;SDS011;75718;50.886;11.656;2024-03-02T08:25:28;27.60;;;14.75;;
85314;SDS011;75718;50.886;11.656;2024-03-02T08:27:53;23.83;;;13.32;;
85314;SDS011;75718;50.886;11.656;2024-03-02T08:30:19;28.13;;;14.10;;
85314;SDS011;75718;50.886;11.656;2024-03-02T08:32:44;21.43;;;11.93;;
85314;SDS011;75718;50.886;11.656;2024-03-02T08:35:10;23.50;;;12.23;;
85314;SDS011;75718;50.886;11.656;2024-03-02T08:37:36;18.27;;;10.80;;
85314;SDS011;75718;50.886;11.656;2024-03-02T08:40:04;17.65;;;11.27;;
85314;SDS011;75718;50.886;11.656;2024-03-02T08:42:32;18.48;;;10.20;;
85314;SDS011;75718;50.886;11.656;2024-03-02T08:44:57;18.35;;;11.77;;
85314;SDS011;75718;50.886;11.656;2024-03-02T08:47:23;15.97;;;9.30;;
85314;SDS011;75718;50.886;11.656;2024-03-02T08:49:48;20.33;;;11.83;;
85314;SDS011;75718;50.886;11.656;2024-03-02T08:52:13;20.83;;;11.43;;
85314;SDS011;75718;50.886;11.656;2024-03-02T08:54:39;18.30;;;10.20;;
85314;SDS011;75718;50.886;11.656;2024-03-02T08:57:04;19.42;;;10.98;;
85314;SDS011;75718;50.886;11.656;2024-03-02T08:59:30;17.73;;;9.82;;
85314;SDS011;75718;50.886;11.656;2024-03-02T09:01:56;17.67;;;10.07;;
85314;SDS011;75718;50.886;11.656;2024-03-02T09:04:22;21.80;;;11.80;;
85314;SDS011;75718;50.886;11.656;2024-03-02T09:06:47;18.05;;;10.13;;
85314;SDS011;75718;50.886;11.656;2024-03-02T09:09:13;18.95;;;9.60;;
85314;SDS011;75718;50.886;11.656;2024-03-02T09:11:38;19.23;;;10.57;;
85314;SDS011;75718;50.886;11.656;2024-03-02T09:14:03;20.98;;;10.27;;
85314;SDS011;75718;50.886;11.656;2024-03-02T09:16:30;18.35;;;10.00;;
85314;SDS011;75718;50.886;11.656;2024-03-02T09:18:56;19.17;;;11.25;;
85314;SDS011;75718;50.886;11.656;2024-03-02T09:21:21;16.73;;;9.23;;
85314;SDS011;75718;50.886;11.656;2024-03-02T09:23:47;16.63;;;9.05;;
85314;SDS011;75718;50.886;11.656;2024-03-02T09:26:13;18.52;;;10.18;;
85314;SDS011;75718;50.886;11.656;2024-03-02T09:28:40;18.55;;;9.88;;
85314;SDS011;75718;50.886;11.656;2024-03-02T09:31:07;18.52;;;9.40;;
85314;SDS011;75718;50.886;11.656;2024-03-02T09:33:33;20.47;;;11.70;;
85314;SDS011;75718;50.886;11.656;2024-03-02T09:35:58;22.90;;;11.33;;
85314;SDS011;75718;50.886;11.656;2024-03-02T09:38:23;15.67;;;9.70;;
85314;SDS011;75718;50.886;11.656;2024-03-02T09:40:48;19.50;;;10.87;;
85314;SDS011;75718;50.886;11.656;2024-03-02T09:43:14;15.73;;;9.32;;
85314;SDS011;75718;50.886;11.656;2024-03-02T09:45:39;17.50;;;9.60;;
85314;SDS011;75718;50.886;11.656;2024-03-02T09:48:05;14.77;;;8.55;;
85314;SDS011;75718;50.886;11.656;2024-03-02T09:50:30;13.77;;;8.73;;
85314;SDS011;75718;50.886;11.656;2024-03-02T09:52:56;13.95;;;9.13;;
85314;SDS011;75718;50.886;11.656;2024-03-02T09:55:21;15.10;;;9.23;;
85314;SDS011;75718;50.886;11.656;2024-03-02T09:57:46;13.63;;;7.90;;
85314;SDS011;75718;50.886;11.656;2024-03-02T10:00:13;12.13;;;7.95;;
85314;SDS011;75718;50.886;11.656;2024-03-02T10:02:40;14.02;;;7.93;;
85314;SDS011;75718;50.886;11.656;2024-03-02T10:05:06;15.82;;;8.15;;
85314;SDS011;75718;50.886;11.656;2024-03-02T10:07:32;16.40;;;9.13;;
85314;SDS011;75718;50.886;11.656;2024-03-02T10:09:58;12.88;;;8.57;;
85314;SDS011;75718;50.886;11.656;2024-03-02T10:12:24;13.32;;;8.23;;
85314;SDS011;75718;50.886;11.656;2024-03-02T10:14:49;15.07;;;8.50;;
85314;SDS011;75718;50.886;11.656;2024-03-02T10:17:27;15.98;;;8.35;;
85314;SDS011;75718;50.886;11.656;2024-03-02T10:19:56;12.43;;;7.25;;
85314;SDS011;75718;50.886;11.656;2024-03-02T10:22:22;15.48;;;7.82;;
85314;SDS011;75718;50.886;11.656;2024-03-02T10:24:48;12.23;;;7.25;;
85314;SDS011;75718;50.886;11.656;2024-03-02T10:27:17;11.98;;;7.93;;
85314;SDS011;75718;50.886;11.656;2024-03-02T10:29:47;12.43;;;7.45;;
85314;SDS011;75718;50.886;11.656;2024-03-02T10:32:13;14.45;;;7.22;;
85314;SDS011;75718;50.886;11.656;2024-03-02T10:34:41;14.85;;;7.10;;
85314;SDS011;75718;50.886;11.656;2024-03-02T10:37:08;13.40;;;7.72;;
85314;SDS011;75718;50.886;11.656;2024-03-02T10:39:36;12.07;;;7.28;;
85314;SDS011;75718;50.886;11.656;2024-03-02T10:42:04;11.82;;;6.43;;
85314;SDS011;75718;50.886;11.656;2024-03-02T10:44:30;11.23;;;7.25;;
85314;SDS011;75718;50.886;11.656;2024-03-02T10:46:57;12.70;;;7.15;;
85314;SDS011;75718;50.886;11.656;2024-03-02T10:49:26;10.63;;;7.00;;
85314;SDS011;75718;50.886;11.656;2024-03-02T10:51:53;9.68;;;6.28;;
85314;SDS011;75718;50.886;11.656;2024-03-02T10:54:19;11.13;;;6.82;;
85314;SDS011;75718;50.886;11.656;2024-03-02T10:56:50;11.30;;;6.78;;
85314;SDS011;75718;50.886;11.656;2024-03-02T11:01:53;8.73;;;5.85;;
85314;SDS011;75718;50.886;11.656;2024-03-02T11:04:21;12.18;;;7.20;;
85314;SDS011;75718;50.886;11.656;2024-03-02T11:06:50;8.95;;;6.30;;
85314;SDS011;75718;50.886;11.656;2024-03-02T11:09:18;9.95;;;7.55;;
85314;SDS011;75718;50.886;11.656;2024-03-02T11:11:46;10.50;;;6.05;;
85314;SDS011;75718;50.886;11.656;2024-03-02T11:14:19;8.93;;;6.38;;
85314;SDS011;75718;50.886;11.656;2024-03-02T11:16:48;11.73;;;6.88;;
85314;SDS011;75718;50.886;11.656;2024-03-02T11:19:15;10.40;;;6.43;;
85314;SDS011;75718;50.886;11.656;2024-03-02T11:21:41;9.57;;;6.20;;
85314;SDS011;75718;50.886;11.656;2024-03-02T11:26:58;8.77;;;6.30;;
85314;SDS011;75718;50.886;11.656;2024-03-02T11:32:05;9.95;;;6.30;;
85314;SDS011;75718;50.886;11.656;2024-03-02T11:34:38;9.90;;;7.07;;
85314;SDS011;75718;50.886;11.656;2024-03-02T11:37:04;11.25;;;7.40;;
85314;SDS011;75718;50.886;11.656;2024-03-02T11:39:30;9.55;;;6.50;;
85314;SDS011;75718;50.886;11.656;2024-03-02T11:41:56;12.25;;;8.00;;
85314;SDS011;75718;50.886;11.656;2024-03-02T11:44:22;8.77;;;6.85;;
85314;SDS011;75718;50.886;11.656;2024-03-02T11:47:00;9.23;;;6.40;;
85314;SDS011;75718;50.886;11.656;2024-03-02T11:49:40;8.95;;;6.75;;
85314;SDS011;75718;50.886;11.656;2024-03-02T11:52:10;7.88;;;6.75;;
85314;SDS011;75718;50.886;11.656;2024-03-02T11:54:37;9.93;;;6.78;;
85314;SDS011;75718;50.886;11.656;2024-03-02T11:57:11;8.63;;;6.70;;
85314;SDS011;75718;50.886;11.656;2024-03-02T11:59:37;7.05;;;5.97;;
85314;SDS011;75718;50.886;11.656;2024-03-02T12:02:04;7.82;;;6.40;;
85314;SDS011;75718;50.886;11.656;2024-03-02T12:04:30;6.55;;;5.57;;
85314;SDS011;75718;50.886;11.656;2024-03-02T12:06:57;7.28;;;5.57;;
85314;SDS011;75718;50.886;11.656;2024-03-02T12:09:25;7.03;;;5.68;;
85314;SDS011;75718;50.886;11.656;2024-03-02T12:16:58;7.80;;;5.95;;
85314;SDS011;75718;50.886;11.656;2024-03-02T12:19:24;6.50;;;5.00;;
85314;SDS011;75718;50.886;11.656;2024-03-02T12:21:50;8.77;;;5.35;;
85314;SDS011;75718;50.886;11.656;2024-03-02T12:24:16;8.00;;;4.82;;
85314;SDS011;75718;50.886;11.656;2024-03-02T12:26:41;6.38;;;4.97;;
85314;SDS011;75718;50.886;11.656;2024-03-02T12:29:07;8.48;;;6.07;;
85314;SDS011;75718;50.886;11.656;2024-03-02T12:31:32;7.60;;;5.85;;
85314;SDS011;75718;50.886;11.656;2024-03-02T12:33:57;9.65;;;5.50;;
85314;SDS011;75718;50.886;11.656;2024-03-02T12:36:23;6.57;;;5.35;;
85314;SDS011;75718;50.886;11.656;2024-03-02T12:38:52;5.85;;;4.10;;
85314;SDS011;75718;50.886;11.656;2024-03-02T12:41:18;8.07;;;5.68;;
85314;SDS011;75718;50.886;11.656;2024-03-02T12:43:43;4.63;;;3.70;;
85314;SDS011;75718;50.886;11.656;2024-03-02T12:46:08;6.40;;;4.20;;
85314;SDS011;75718;50.886;11.656;2024-03-02T12:48:34;5.18;;;4.60;;
85314;SDS011;75718;50.886;11.656;2024-03-02T12:51:01;4.22;;;3.15;;
85314;SDS011;75718;50.886;11.656;2024-03-02T12:53:26;5.05;;;3.60;;
85314;SDS011;75718;50.886;11.656;2024-03-02T12:55:52;7.95;;;3.22;;
85314;SDS011;75718;50.886;11.656;2024-03-02T12:58:20;2.80;;;2.13;;
85314;SDS011;75718;50.886;11.656;2024-03-02T13:00:47;4.30;;;3.42;;
85314;SDS011;75718;50.886;11.656;2024-03-02T13:03:12;3.42;;;3.08;;
85314;SDS011;75718;50.886;11.656;2024-03-02T13:05:38;3.60;;;2.10;;
85314;SDS011;75718;50.886;11.656;2024-03-02T13:08:04;4.68;;;3.22;;
85314;SDS011;75718;50.886;11.656;2024-03-02T13:10:31;4.80;;;2.53;;
85314;SDS011;75718;50.886;11.656;2024-03-02T13:12:57;3.50;;;2.75;;
85314;SDS011;75718;50.886;11.656;2024-03-02T13:15:23;3.60;;;2.42;;
85314;SDS011;75718;50.886;11.656;2024-03-02T13:17:48;3.73;;;2.77;;
85314;SDS011;75718;50.886;11.656;2024-03-02T13:20:14;3.45;;;2.95;;
85314;SDS011;75718;50.886;11.656;2024-03-02T13:22:39;4.85;;;4.03;;
85314;SDS011;75718;50.886;11.656;2024-03-02T13:25:05;4.63;;;4.10;;
85314;SDS011;75718;50.886;11.656;2024-03-02T13:27:31;3.38;;;2.60;;
85314;SDS011;75718;50.886;11.656;2024-03-02T13:29:57;3.90;;;2.47;;
85314;SDS011;75718;50.886;11.656;2024-03-02T13:32:23;4.63;;;3.15;;
85314;SDS011;75718;50.886;11.656;2024-03-02T13:34:50;3.40;;;2.55;;
85314;SDS011;75718;50.886;11.656;2024-03-02T13:37:16;4.00;;;2.38;;
85314;SDS011;75718;50.886;11.656;2024-03-02T13:39:41;3.10;;;2.40;;
85314;SDS011;75718;50.886;11.656;2024-03-02T13:42:10;3.33;;;2.40;;
85314;SDS011;75718;50.886;11.656;2024-03-02T13:44:37;4.18;;;2.95;;
85314;SDS011;75718;50.886;11.656;2024-03-02T13:47:03;3.00;;;2.50;;
85314;SDS011;75718;50.886;11.656;2024-03-02T13:49:29;3.58;;;2.50;;
85314;SDS011;75718;50.886;11.656;2024-03-02T13:52:02;3.47;;;2.17;;
85314;SDS011;75718;50.886;11.656;2024-03-02T13:54:36;2.88;;;2.10;;
85314;SDS011;75718;50.886;11.656;2024-03-02T13:57:02;4.47;;;2.47;;
85314;SDS011;75718;50.886;11.656;2024-03-02T13:59:27;3.03;;;2.08;;
85314;SDS011;75718;50.886;11.656;2024-03-02T14:01:52;2.80;;;2.30;;
85314;SDS011;75718;50.886;11.656;2024-03-02T14:04:18;2.75;;;2.47;;
85314;SDS011;75718;50.886;11.656;2024-03-02T14:06:43;3.27;;;2.47;;
85314;SDS011;75718;50.886;11.656;2024-03-02T14:09:09;3.28;;;2.30;;
85314;SDS011;75718;50.886;11.656;2024-03-02T14:11:34;3.30;;;2.55;;
85314;SDS011;75718;50.886;11.656;2024-03-02T14:14:00;3.15;;;2.42;;
85314;SDS011;75718;50.886;11.656;2024-03-02T14:16:26;2.95;;;2.00;;
85314;SDS011;75718;50.886;11.656;2024-03-02T14:18:52;4.57;;;2.97;;
85314;SDS011;75718;50.886;11.656;2024-03-02T14:21:17;3.65;;;3.33;;
85314;SDS011;75718;50.886;11.656;2024-03-02T14:23:43;3.40;;;2.53;;
85314;SDS011;75718;50.886;11.656;2024-03-02T14:26:08;3.53;;;2.87;;
85314;SDS011;75718;50.886;11.656;2024-03-02T14:28:33;4.13;;;2.10;;
85314;SDS011;75718;50.886;11.656;2024-03-02T14:30:59;6.18;;;3.05;;
85314;SDS011;75718;50.886;11.656;2024-03-02T14:33:25;3.70;;;2.75;;